Time;durP1;ratioP1;P1;durP2;ratioP2;P2;SDS_P1;SDS_P2;PMS_P1;PMS_P2;Temp;Humidity;BMP_temperature;BMP_pressure;BME280_temperature;BME280_humidity;BME280_pressure;Samples;Min_cycle;Max_cycle;Signal;HPM_P1;HPM_P2
2022/01/06 00:01:31;;;;;;;36.90;23.30;;;;;;;29.03;51.29;101143.97;5007503;28;66381;-40
2022/01/06 00:04:01;;;;;;;35.97;23.10;;;;;;;29.04;51.45;101149.22;5008886;28;70230;-41
2022/01/06 00:06:37;;;;;;;38.88;24.92;;;;;;;29.10;51.34;101155.69;5012338;28;66890;-40
2022/01/06 00:09:10;;;;;;;41.50;23.13;;;;;;;29.14;52.15;101152.38;5014613;28;69810;-40
2022/01/06 00:11:41;;;;;;;65.50;29.67;;;;;;;29.18;54.22;101152.81;4999370;28;65988;-40
2022/01/06 00:17:24;;;;;;;71.13;43.80;;;;;;;29.31;58.14;101168.22;5018248;28;66024;-39
2022/01/06 00:25:15;;;;;;;82.38;46.72;;;;;;;29.25;60.42;101167.16;5018574;28;70370;-38
2022/01/06 00:27:45;;;;;;;73.45;43.67;;;;;;;29.36;60.58;101182.81;5006199;28;66491;-41
2022/01/06 00:30:16;;;;;;;68.75;42.67;;;;;;;29.40;60.54;101186.75;5010369;28;69206;-40
2022/01/06 00:32:46;;;;;;;70.03;43.35;;;;;;;29.46;60.02;101187.00;5013765;28;65615;-39
2022/01/06 00:35:17;;;;;;;61.97;39.88;;;;;;;29.48;60.26;101193.03;5005659;28;70114;-40
2022/01/06 00:37:47;;;;;;;57.55;36.13;;;;;;;29.49;60.02;101203.63;5018010;28;66163;-40
2022/01/06 00:40:18;;;;;;;66.93;37.22;;;;;;;29.55;59.71;101207.38;5019380;28;70063;-41
2022/01/06 00:42:48;;;;;;;57.53;35.92;;;;;;;29.55;59.48;101199.28;5015699;28;66652;-41
2022/01/06 00:45:18;;;;;;;59.90;34.20;;;;;;;29.57;59.47;101205.31;5011469;28;70512;-41
2022/01/06 00:47:49;;;;;;;53.38;34.97;;;;;;;29.61;59.86;101206.56;5012261;28;65610;-41
2022/01/06 00:50:19;;;;;;;52.85;35.60;;;;;;;29.63;59.61;101204.53;5010573;28;69900;-41
2022/01/06 00:52:50;;;;;;;59.08;35.33;;;;;;;29.63;59.59;101204.53;5006953;28;66403;-40
2022/01/06 00:55:20;;;;;;;56.33;35.45;;;;;;;29.71;59.46;101225.13;5011008;28;70628;-41
2022/01/06 00:57:55;;;;;;;52.92;34.50;;;;;;;29.71;58.88;101223.25;5008351;28;66711;-40
2022/01/06 01:00:29;;;;;;;47.13;33.58;;;;;;;29.75;59.21;101229.91;5010121;28;69773;-41
2022/01/06 01:03:00;;;;;;;50.45;34.45;;;;;;;29.78;58.69;101232.25;5004586;28;66388;-40
2022/01/06 01:05:30;;;;;;;46.17;33.83;;;;;;;29.80;58.95;101237.44;5007615;28;70354;-41
2022/01/06 01:08:00;;;;;;;54.38;33.30;;;;;;;29.82;58.93;101240.78;5012449;28;65045;-41
2022/01/06 01:10:31;;;;;;;45.90;32.28;;;;;;;29.81;58.73;101234.53;5011969;28;69563;-41
2022/01/06 01:13:02;;;;;;;48.83;33.92;;;;;;;29.89;58.93;101235.38;5013896;28;66659;-42
2022/01/06 01:15:34;;;;;;;47.92;33.42;;;;;;;29.89;58.53;101246.19;5011846;28;69680;-41
2022/01/06 01:18:07;;;;;;;;;;;;;;;29.58;60.05;101240.25;5014057;28;65214;-42
2022/01/06 01:20:40;;;;;;;42.95;30.63;;;;;;;29.88;58.57;101241.81;5015712;28;70338;-40
2022/01/06 01:23:11;;;;;;;41.10;30.83;;;;;;;29.91;58.08;101246.81;5016633;28;66163;-40
2022/01/06 01:25:41;;;;;;;45.63;32.80;;;;;;;29.96;58.03;101253.28;5008396;28;70754;-40
2022/01/06 01:28:11;;;;;;;44.50;32.42;;;;;;;29.97;57.94;101246.00;5004593;28;65541;-40
2022/01/06 01:31:01;;;;;;;49.95;35.33;;;;;;;29.99;58.60;101249.34;5006537;28;69870;-41
2022/01/06 01:33:32;;;;;;;46.50;33.38;;;;;;;30.01;58.59;101255.38;5016848;28;65592;-40
2022/01/06 01:36:02;;;;;;;48.53;33.88;;;;;;;30.01;58.10;101253.50;5012039;28;70187;-40
2022/01/06 01:38:33;;;;;;;44.65;32.17;;;;;;;30.04;57.83;101257.66;5013363;28;65951;-41
2022/01/06 01:41:04;;;;;;;47.53;32.60;;;;;;;30.05;57.71;101256.63;5011250;28;70008;-41
2022/01/06 01:43:35;;;;;;;47.65;33.08;;;;;;;30.04;57.79;101260.38;5018578;28;65321;-40
2022/01/06 01:46:17;;;;;;;47.72;32.58;;;;;;;30.09;57.94;101268.72;5027827;28;70672;-41
2022/01/06 01:49:15;;;;;;;48.00;32.85;;;;;;;30.10;58.26;101275.78;5011218;28;65844;-40
2022/01/06 01:51:42;;;;;;;42.30;31.45;;;;;;;30.12;57.74;101273.72;5015845;28;70211;-40
2022/01/06 01:54:12;;;;;;;39.00;30.17;;;;;;;30.16;57.39;101277.66;5018332;28;65436;-40
2022/01/06 01:56:44;;;;;;;40.97;30.17;;;;;;;29.98;57.53;101236.84;5017611;28;69544;-40
2022/01/06 01:59:15;;;;;;;50.75;30.33;;;;;;;30.18;57.12;101275.59;5013299;28;65406;-41
2022/01/06 02:01:45;;;;;;;42.50;29.55;;;;;;;30.22;57.73;101273.31;5008992;28;70612;-40
2022/01/06 02:04:15;;;;;;;38.53;29.98;;;;;;;30.20;57.06;101270.81;5019063;28;66616;-42
2022/01/06 02:06:46;;;;;;;42.20;30.60;;;;;;;30.20;57.27;101276.22;5011185;28;70955;-42
2022/01/06 02:09:17;;;;;;;41.38;30.10;;;;;;;30.17;56.93;101265.81;5013066;28;67069;-40
2022/01/06 02:11:48;;;;;;;40.83;30.02;;;;;;;30.08;57.13;101250.78;5014211;28;70382;-41
2022/01/06 02:14:19;;;;;;;40.33;28.50;;;;;;;30.30;56.78;101283.13;5011864;28;65279;-41
2022/01/06 02:16:49;;;;;;;43.10;30.15;;;;;;;30.31;56.78;101277.47;5016534;28;69854;-39
2022/01/06 02:19:32;;;;;;;41.55;29.35;;;;;;;30.34;56.71;101284.34;5009060;28;65337;-41
2022/01/06 02:22:04;;;;;;;40.15;28.95;;;;;;;30.37;56.96;101289.34;5014508;28;69300;-41
2022/01/06 02:24:34;;;;;;;35.83;28.63;;;;;;;30.39;56.97;101284.56;5019360;28;65727;-41
2022/01/06 02:27:04;;;;;;;39.58;28.35;;;;;;;30.34;56.74;101270.81;5017087;28;69725;-41
2022/01/06 02:29:35;;;;;;;35.15;28.48;;;;;;;30.44;56.53;101282.06;5015788;28;66105;-41
2022/01/06 02:32:10;;;;;;;34.75;26.40;;;;;;;30.46;56.80;101278.13;5017906;28;70150;-41
2022/01/06 02:34:41;;;;;;;37.97;28.30;;;;;;;30.47;56.39;101276.25;5013420;28;65036;-40
2022/01/06 02:37:13;;;;;;;38.08;27.55;;;;;;;30.47;56.36;101279.78;5005320;28;69717;-41
2022/01/06 02:39:44;;;;;;;42.33;28.15;;;;;;;30.42;56.74;101276.03;5008665;28;66506;-41
2022/01/06 02:42:15;;;;;;;33.75;26.77;;;;;;;30.53;56.43;101286.22;5015074;28;70241;-41
2022/01/06 02:44:46;;;;;;;35.23;26.57;;;;;;;30.53;56.44;101278.13;5010475;28;66226;-41
2022/01/06 02:47:16;;;;;;;32.90;26.63;;;;;;;30.57;56.42;101276.66;5016170;28;70339;-44
2022/01/06 02:49:47;;;;;;;39.60;27.42;;;;;;;30.57;56.63;101263.13;5015836;28;66318;-41
2022/01/06 02:52:17;;;;;;;31.20;23.67;;;;;;;30.60;56.31;101261.88;5016014;28;69673;-40
2022/01/06 02:54:47;;;;;;;31.63;26.13;;;;;;;30.62;56.63;101270.59;5016842;28;65708;-41
2022/01/06 02:57:17;;;;;;;33.53;25.55;;;;;;;30.63;55.95;101266.88;5012182;28;69676;-42
2022/01/06 02:59:48;;;;;;;30.45;25.42;;;;;;;30.66;56.41;101275.41;5007170;28;65889;-41
2022/01/06 03:02:19;;;;;;;32.80;25.23;;;;;;;30.66;55.88;101264.56;5010668;28;70102;-41
2022/01/06 03:04:49;;;;;;;28.80;23.38;;;;;;;30.65;55.90;101251.25;5011770;28;66447;-40
2022/01/06 03:07:19;;;;;;;32.50;24.98;;;;;;;30.67;55.85;101252.72;5011788;28;68832;-41
2022/01/06 03:09:54;;;;;;;29.52;22.90;;;;;;;30.71;56.06;101250.41;5013402;28;65885;-41
2022/01/06 03:12:34;;;;;;;33.15;25.33;;;;;;;30.71;56.00;101253.13;5015644;28;70422;-40
2022/01/06 03:15:04;;;;;;;33.65;25.15;;;;;;;30.76;55.75;101245.22;5015197;28;65508;-41
2022/01/06 03:17:36;;;;;;;30.42;24.83;;;;;;;30.79;55.83;101252.09;5018377;28;70117;-42
2022/01/06 03:20:09;;;;;;;28.50;23.90;;;;;;;30.70;55.52;101233.34;5016565;28;65978;-41
2022/01/06 03:22:41;;;;;;;33.47;23.48;;;;;;;30.86;56.04;101247.50;5011889;28;70113;-41
2022/01/06 03:25:13;;;;;;;32.05;24.55;;;;;;;30.86;55.97;101248.31;5012519;28;65822;-41
2022/01/06 03:27:44;;;;;;;;;;;;;;;30.60;56.61;101251.88;5011027;28;70472;-42
2022/01/06 03:30:17;;;;;;;30.67;23.67;;;;;;;30.78;55.45;101226.84;5013221;28;66643;-40
2022/01/06 03:32:48;;;;;;;31.27;24.20;;;;;;;30.90;55.73;101237.91;5012496;28;69838;-39
2022/01/06 03:35:23;;;;;;;41.85;25.67;;;;;;;30.78;55.69;101202.47;5013191;28;66415;-42
2022/01/06 03:37:54;;;;;;;37.53;25.70;;;;;;;30.94;55.56;101222.91;4990927;28;70326;-41
2022/01/06 03:40:24;;;;;;;33.53;24.38;;;;;;;30.97;55.62;101224.34;5011084;28;65255;-41
2022/01/06 03:42:54;;;;;;;34.22;25.38;;;;;;;30.99;55.25;101214.13;5007472;28;70168;-41
2022/01/06 03:45:24;;;;;;;36.20;24.67;;;;;;;31.00;55.64;101211.19;5015506;28;65646;-41
2022/01/06 03:47:55;;;;;;;34.00;25.08;;;;;;;31.03;55.03;101209.94;5010090;28;69906;-43
2022/01/06 03:50:26;;;;;;;30.02;24.33;;;;;;;31.04;54.94;101200.78;5017464;28;66592;-40
2022/01/06 03:52:56;;;;;;;31.13;23.65;;;;;;;31.08;55.21;101196.59;5016228;28;70351;-40
2022/01/06 03:55:27;;;;;;;33.03;23.55;;;;;;;31.07;55.45;101195.75;5015926;28;65651;-40
2022/01/06 03:57:57;;;;;;;36.70;24.23;;;;;;;31.11;55.53;101196.16;5010500;28;69748;-40
2022/01/06 04:00:36;;;;;;;38.58;25.10;;;;;;;31.13;54.98;101192.19;5007711;28;66093;-41
2022/01/06 04:03:14;;;;;;;32.75;25.10;;;;;;;31.10;55.43;101183.66;5010529;28;70150;-42
2022/01/06 04:05:45;;;;;;;35.60;25.27;;;;;;;31.14;54.93;101190.31;5013460;28;65997;-43
2022/01/06 04:08:15;;;;;;;34.03;24.70;;;;;;;31.14;55.14;101183.00;4993753;28;69896;-42
2022/01/06 04:10:46;;;;;;;32.42;24.58;;;;;;;31.16;55.13;101172.78;5015840;28;66608;-40
2022/01/06 04:13:17;;;;;;;33.92;24.15;;;;;;;31.20;55.19;101177.78;5029799;28;69964;-40
2022/01/06 04:15:48;;;;;;;31.48;23.90;;;;;;;31.20;54.94;101177.78;5009406;28;66622;-41
2022/01/06 04:18:18;;;;;;;31.67;24.10;;;;;;;31.08;55.01;101150.53;5016713;28;70577;-41
2022/01/06 04:20:48;;;;;;;31.13;23.05;;;;;;;31.23;54.84;101177.34;5008271;28;65752;-42
2022/01/06 04:23:18;;;;;;;30.88;24.20;;;;;;;31.25;54.93;101172.53;5015893;28;70201;-40
2022/01/06 04:25:48;;;;;;;33.05;23.88;;;;;;;31.24;54.71;101168.19;5011197;28;65408;-40
2022/01/06 04:28:19;;;;;;;29.58;23.13;;;;;;;31.21;55.04;101158.59;4999180;28;70050;-41
2022/01/06 04:30:49;;;;;;;27.65;22.98;;;;;;;31.24;55.07;101165.47;5015222;28;66200;-41
2022/01/06 04:33:20;;;;;;;31.80;21.92;;;;;;;31.27;54.33;101159.63;5016241;28;69848;-41
2022/01/06 04:35:51;;;;;;;30.33;22.50;;;;;;;31.25;54.68;101148.16;5010375;28;64962;-41
2022/01/06 04:38:22;;;;;;;27.17;21.45;;;;;;;31.28;54.63;101142.28;5009764;28;69859;-40
2022/01/06 04:40:52;;;;;;;32.17;22.23;;;;;;;31.30;54.38;101142.91;5013312;28;65747;-40
2022/01/06 04:43:23;;;;;;;27.48;21.73;;;;;;;31.31;54.14;101129.13;5012114;28;70327;-40
2022/01/06 04:45:53;;;;;;;24.88;22.08;;;;;;;31.27;54.71;101118.97;5014836;28;66092;-40
2022/01/06 04:48:23;;;;;;;27.48;22.27;;;;;;;31.34;54.30;101125.16;5016262;28;70500;-41
2022/01/06 04:50:54;;;;;;;32.65;21.38;;;;;;;31.35;54.41;101129.56;4999049;28;66193;-41
2022/01/06 04:53:24;;;;;;;29.10;21.52;;;;;;;31.30;53.99;101118.53;5016066;28;70052;-41
2022/01/06 04:55:56;;;;;;;29.15;22.33;;;;;;;31.28;54.24;101105.19;5012259;28;66557;-41
2022/01/06 04:58:28;;;;;;;24.60;21.42;;;;;;;31.42;54.12;101122.22;5010235;28;69933;-40
2022/01/06 05:00:58;;;;;;;22.80;20.23;;;;;;;31.40;54.58;101113.50;5006321;28;66229;-41
2022/01/06 05:03:28;;;;;;;29.00;21.73;;;;;;;31.29;54.35;101078.94;5009557;28;70415;-41
2022/01/06 05:05:59;;;;;;;27.85;20.77;;;;;;;31.47;54.37;101103.44;5011055;28;65986;-39
2022/01/06 05:08:29;;;;;;;24.67;20.35;;;;;;;31.42;53.67;101089.69;5011789;28;69762;-42
2022/01/06 05:11:00;;;;;;;23.05;20.63;;;;;;;31.51;53.75;101099.25;5017381;28;65424;-41
2022/01/06 05:13:30;;;;;;;28.45;21.33;;;;;;;31.51;54.11;101091.09;5012893;28;70508;-41
2022/01/06 05:16:01;;;;;;;29.08;20.58;;;;;;;31.55;54.24;101089.59;5016054;28;65118;-40
2022/01/06 05:18:31;;;;;;;22.40;20.02;;;;;;;31.53;54.01;101080.03;5017563;28;69260;-41
2022/01/06 05:21:01;;;;;;;28.58;21.52;;;;;;;31.56;53.78;101085.00;5010857;28;65768;-40
2022/01/06 05:23:32;;;;;;;30.20;20.05;;;;;;;31.58;54.11;101070.19;5012964;28;70165;-41
2022/01/06 05:26:03;;;;;;;23.20;19.80;;;;;;;31.61;53.83;101060.78;5010487;28;66669;-41
2022/01/06 05:28:33;;;;;;;23.67;20.08;;;;;;;31.63;53.62;101064.09;5012868;28;70761;-40
2022/01/06 05:31:04;;;;;;;25.05;20.15;;;;;;;31.66;53.96;101062.84;5014300;28;65935;-41
2022/01/06 05:33:34;;;;;;;21.60;19.33;;;;;;;31.67;54.16;101053.63;5016361;28;69575;-41
2022/01/06 05:36:04;;;;;;;24.10;19.98;;;;;;;31.69;53.79;101051.53;5010213;28;66890;-40
2022/01/06 05:38:35;;;;;;;24.23;20.25;;;;;;;31.72;53.89;101051.09;5011433;28;70161;-41
2022/01/06 05:41:05;;;;;;;24.83;19.77;;;;;;;31.72;53.78;101043.78;5010400;28;65805;-41
2022/01/06 05:43:35;;;;;;;30.88;20.35;;;;;;;31.67;53.94;101023.81;5007044;28;70276;-41
2022/01/06 05:46:05;;;;;;;29.00;20.23;;;;;;;31.75;53.59;101034.38;5008482;28;65566;-41
2022/01/06 05:48:36;;;;;;;27.98;19.92;;;;;;;31.75;54.00;101035.19;5015873;28;69353;-40
2022/01/06 05:51:06;;;;;;;25.30;19.85;;;;;;;31.77;53.84;101032.28;5008218;28;66058;-40
2022/01/06 05:53:37;;;;;;;23.48;20.33;;;;;;;31.77;53.53;101024.13;5018154;28;70364;-41
2022/01/06 05:56:07;;;;;;;21.98;19.63;;;;;;;31.75;53.66;101009.97;5010704;28;66107;-40
2022/01/06 05:58:40;;;;;;;25.45;20.10;;;;;;;31.76;53.99;101008.91;5008699;28;69552;-43
2022/01/06 06:01:10;;;;;;;26.33;20.17;;;;;;;31.78;53.91;101001.38;5013599;28;66381;-40
2022/01/06 06:03:40;;;;;;;27.52;20.90;;;;;;;31.78;53.83;100994.06;5012083;28;69270;-40
2022/01/06 06:06:13;;;;;;;24.80;20.92;;;;;;;31.78;54.16;100991.34;5015688;28;43262;-40
2022/01/06 06:08:43;;;;;;;27.15;21.02;;;;;;;31.79;53.80;100981.34;5015283;28;69102;-40
2022/01/06 06:11:13;;;;;;;27.02;19.98;;;;;;;31.80;53.97;100985.72;5008462;28;65318;-40
2022/01/06 06:13:43;;;;;;;28.30;20.30;;;;;;;31.75;53.85;100974.69;5010404;28;70124;-40
2022/01/06 06:16:14;;;;;;;24.02;20.45;;;;;;;31.78;53.77;100976.97;5009863;28;66464;-40
2022/01/06 06:18:44;;;;;;;23.90;19.60;;;;;;;31.79;53.98;100978.66;5027083;28;69631;-40
2022/01/06 06:21:14;;;;;;;30.30;21.15;;;;;;;31.75;54.27;100963.84;5015633;28;65443;-40
2022/01/06 06:23:44;;;;;;;23.00;19.85;;;;;;;31.75;54.29;100963.84;5015203;28;70138;-41
2022/01/06 06:26:15;;;;;;;34.58;20.83;;;;;;;31.74;54.26;100959.50;5014593;28;65755;-40
2022/01/06 06:28:45;;;;;;;24.63;19.83;;;;;;;31.76;54.13;100949.22;5017223;28;69258;-41
2022/01/06 06:31:16;;;;;;;28.88;20.88;;;;;;;31.76;54.31;100952.78;5013925;28;65342;-41
2022/01/06 06:33:46;;;;;;;30.77;19.40;;;;;;;31.73;53.95;100949.69;5017038;28;69653;-40
2022/01/06 06:36:17;;;;;;;25.15;20.25;;;;;;;31.71;53.81;100940.97;5020104;28;66449;-41
2022/01/06 06:38:47;;;;;;;29.80;20.80;;;;;;;31.74;53.92;100940.50;5020564;28;69382;-41
2022/01/06 06:41:18;;;;;;;24.00;19.65;;;;;;;31.72;54.04;100926.34;5016456;28;65834;-40
2022/01/06 06:43:48;;;;;;;25.92;20.13;;;;;;;31.77;54.26;100937.34;5020859;28;70289;-41
2022/01/06 06:46:19;;;;;;;24.98;19.85;;;;;;;31.65;53.95;100909.28;5018901;28;66527;-40
2022/01/06 06:48:49;;;;;;;25.08;20.63;;;;;;;31.77;54.60;100923.78;5018075;28;69971;-41
2022/01/06 06:51:20;;;;;;;24.95;20.02;;;;;;;31.69;53.98;100899.66;5017672;28;66424;-40
2022/01/06 06:53:50;;;;;;;27.75;20.05;;;;;;;31.76;54.32;100917.53;5019473;28;69967;-41
2022/01/06 06:56:21;;;;;;;27.25;21.25;;;;;;;31.78;54.47;100920.00;5017793;28;66561;-40
2022/01/06 06:58:51;;;;;;;23.58;20.17;;;;;;;31.70;54.17;100895.91;5018448;28;70376;-40
2022/01/06 07:01:21;;;;;;;26.92;21.27;;;;;;;31.79;54.39;100911.66;5019014;28;66056;-41
2022/01/06 07:03:52;;;;;;;24.77;20.58;;;;;;;31.77;53.98;100907.50;5016620;28;69624;-41
2022/01/06 07:06:22;;;;;;;26.45;19.88;;;;;;;31.65;54.47;100882.19;5019287;28;66201;-41
2022/01/06 07:08:52;;;;;;;27.35;20.50;;;;;;;31.80;54.51;100907.06;5018787;28;70626;-40
2022/01/06 07:11:23;;;;;;;22.73;20.45;;;;;;;31.82;54.13;100891.41;5017629;28;66010;-40
2022/01/06 07:13:54;;;;;;;23.30;20.23;;;;;;;31.81;54.13;100887.81;5013992;28;69819;-42
2022/01/06 07:16:24;;;;;;;22.30;19.92;;;;;;;31.80;53.97;100890.78;5010898;28;65427;-40
2022/01/06 07:18:54;;;;;;;26.45;21.02;;;;;;;31.87;53.99;100888.81;5018606;28;69623;-41
2022/01/06 07:21:25;;;;;;;26.50;19.85;;;;;;;31.85;54.20;100887.41;5018269;28;64749;-40
2022/01/06 07:23:55;;;;;;;27.45;19.73;;;;;;;31.88;53.97;100887.75;5015694;28;69200;-40
2022/01/06 07:26:25;;;;;;;25.13;20.25;;;;;;;31.94;54.46;100886.06;5018405;28;65422;-40
2022/01/06 07:28:56;;;;;;;21.85;19.58;;;;;;;31.93;54.13;100882.53;5017383;28;69828;-40
2022/01/06 07:31:26;;;;;;;23.08;18.77;;;;;;;31.92;54.16;100883.56;5016687;28;65632;-40
2022/01/06 07:33:56;;;;;;;23.88;19.23;;;;;;;31.95;54.29;100888.53;5018858;28;69883;-40
2022/01/06 07:36:27;;;;;;;27.63;19.73;;;;;;;32.00;54.20;100891.41;5010827;28;66145;-41
2022/01/06 07:38:57;;;;;;;22.15;18.40;;;;;;;32.01;54.25;100881.38;5013887;28;69317;-42
2022/01/06 07:41:27;;;;;;;20.35;18.08;;;;;;;32.02;54.34;100883.88;5028968;28;65750;-40
2022/01/06 07:43:58;;;;;;;28.45;19.65;;;;;;;32.01;54.28;100884.94;5016675;28;70131;-41
2022/01/06 07:46:29;;;;;;;21.25;17.92;;;;;;;32.07;53.95;100887.75;5014550;28;66314;-40
2022/01/06 07:49:01;;;;;;;22.20;18.65;;;;;;;32.07;54.34;100885.91;5018395;28;70044;-41
2022/01/06 07:51:35;;;;;;;20.67;18.45;;;;;;;32.09;53.93;100882.94;5007358;28;66522;-40
2022/01/06 07:54:07;;;;;;;24.80;18.70;;;;;;;32.10;54.39;100890.03;5009551;28;70036;-40
2022/01/06 07:56:37;;;;;;;20.05;17.85;;;;;;;32.10;54.24;100884.63;5008228;28;66031;-40
2022/01/06 07:59:09;;;;;;;20.20;17.35;;;;;;;32.13;54.29;100889.59;5007518;28;70167;-40
2022/01/06 08:01:40;;;;;;;19.97;17.07;;;;;;;32.13;54.15;100884.97;5013159;28;66032;-40
2022/01/06 08:04:11;;;;;;;18.55;16.63;;;;;;;32.14;54.36;100885.81;5015588;28;70002;-40
2022/01/06 08:06:41;;;;;;;19.63;17.48;;;;;;;32.14;54.19;100883.09;5016669;28;65428;-40
2022/01/06 08:09:11;;;;;;;19.65;17.58;;;;;;;32.17;54.12;100882.63;5014415;28;69867;-41
2022/01/06 08:11:42;;;;;;;18.00;16.05;;;;;;;32.18;53.92;100889.69;5017606;28;66316;-41
2022/01/06 08:14:12;;;;;;;18.15;16.35;;;;;;;32.16;54.03;100880.97;5016621;28;69327;-41
2022/01/06 08:16:42;;;;;;;18.75;16.90;;;;;;;32.16;54.23;100872.84;5017554;28;66663;-41
2022/01/06 08:19:13;;;;;;;17.73;15.95;;;;;;;32.19;54.23;100880.53;5014652;28;70374;-41
2022/01/06 08:21:44;;;;;;;18.33;16.40;;;;;;;32.21;54.05;100886.56;5016639;28;66631;-40
2022/01/06 08:24:14;;;;;;;20.23;15.73;;;;;;;32.17;54.11;100874.47;5010911;28;69819;-40
2022/01/06 08:26:44;;;;;;;16.77;15.18;;;;;;;32.20;53.74;100874.03;5015250;28;66104;-41
2022/01/06 08:29:15;;;;;;;17.88;15.40;;;;;;;32.24;54.02;100886.09;5013313;28;69037;-40
2022/01/06 08:31:45;;;;;;;17.60;15.60;;;;;;;32.09;53.91;100861.22;5017800;28;66453;-41
2022/01/06 08:34:16;;;;;;;19.85;15.85;;;;;;;32.25;54.02;100882.31;5013502;28;70236;-41
2022/01/06 08:36:52;;;;;;;18.00;15.55;;;;;;;32.25;54.12;100876.88;5011489;28;66104;-40
2022/01/06 08:39:23;;;;;;;20.13;15.57;;;;;;;32.22;54.03;100866.50;5005390;28;70276;-41
2022/01/06 08:41:54;;;;;;;15.70;14.30;;;;;;;32.22;54.44;100874.63;5009627;28;65261;-41
2022/01/06 08:44:24;;;;;;;17.08;15.27;;;;;;;32.27;54.31;100882.91;5012413;28;70016;-41
2022/01/06 08:46:55;;;;;;;21.83;15.52;;;;;;;32.28;54.22;100884.56;5017286;28;66432;-41
2022/01/06 08:49:26;;;;;;;19.17;15.95;;;;;;;32.26;53.99;100878.53;5010562;28;70298;-41
2022/01/06 08:51:57;;;;;;;17.38;14.75;;;;;;;32.29;54.27;100878.09;5016636;28;66600;-42
2022/01/06 08:54:27;;;;;;;16.48;14.90;;;;;;;32.30;53.67;100878.91;5015227;28;70761;-41
2022/01/06 08:56:58;;;;;;;15.30;13.93;;;;;;;32.30;53.90;100878.91;5009838;28;66033;-43
2022/01/06 08:59:28;;;;;;;17.52;15.23;;;;;;;32.30;54.22;100881.63;5011268;28;70411;-41
2022/01/06 09:01:58;;;;;;;14.77;13.43;;;;;;;32.32;54.34;100877.63;5011764;28;66363;-41
2022/01/06 09:04:28;;;;;;;17.23;14.23;;;;;;;32.32;54.04;100883.06;5014294;28;69947;-41
2022/01/06 09:06:59;;;;;;;16.17;14.48;;;;;;;32.30;54.21;100884.34;5013646;28;66017;-41
2022/01/06 09:09:30;;;;;;;19.33;14.80;;;;;;;32.31;54.27;100881.38;5016821;28;70199;-41
2022/01/06 09:12:01;;;;;;;15.65;14.15;;;;;;;32.33;54.27;100890.13;5011460;28;65441;-40
2022/01/06 09:14:32;;;;;;;14.10;12.97;;;;;;;32.33;54.20;100890.13;5010163;28;69088;-41
2022/01/06 09:17:03;;;;;;;19.30;14.43;;;;;;;32.31;54.02;100880.56;5011505;28;65274;-41
2022/01/06 09:19:34;;;;;;;18.58;13.38;;;;;;;32.35;54.17;100892.63;5010557;28;70141;-41
2022/01/06 09:22:05;;;;;;;14.40;12.70;;;;;;;32.36;54.18;100894.28;5009141;28;65565;-41
2022/01/06 09:24:35;;;;;;;15.95;13.90;;;;;;;32.34;54.25;100905.34;5011424;28;70567;-41
2022/01/06 09:27:05;;;;;;;16.15;14.38;;;;;;;32.35;54.25;100903.50;5009802;28;66378;-40
2022/01/06 09:29:36;;;;;;;14.15;12.70;;;;;;;32.35;54.20;100904.31;5015617;28;70254;-42
2022/01/06 09:32:07;;;;;;;16.30;13.90;;;;;;;32.28;54.25;100892.72;5007396;28;66294;-40
2022/01/06 09:34:37;;;;;;;15.77;13.98;;;;;;;32.37;54.35;100912.22;5011577;28;70111;-41
2022/01/06 09:37:08;;;;;;;15.00;13.43;;;;;;;32.31;54.30;100911.25;5012321;28;66899;-40
2022/01/06 09:39:38;;;;;;;17.00;13.77;;;;;;;32.37;54.04;100912.22;5005293;28;70189;-41
2022/01/06 09:42:09;;;;;;;14.85;13.07;;;;;;;32.35;54.48;100922.50;5012757;28;66857;-41
2022/01/06 09:44:40;;;;;;;13.88;12.68;;;;;;;32.37;54.10;100923.06;5015952;28;70556;-41
2022/01/06 09:47:11;;;;;;;15.40;12.68;;;;;;;32.38;54.35;100924.75;5016144;28;65433;-41
2022/01/06 09:50:11;;;;;;;13.95;12.70;;;;;;;32.27;54.16;100904.63;5003714;28;70253;-41
2022/01/06 09:52:46;;;;;;;14.05;12.70;;;;;;;32.36;54.33;100926.84;5008732;28;66490;-40
2022/01/06 09:55:16;;;;;;;14.45;13.07;;;;;;;32.35;54.00;100928.75;4998377;28;71068;-41
2022/01/06 09:57:55;;;;;;;13.70;12.40;;;;;;;32.36;54.16;100938.53;5016439;28;65583;-40
2022/01/06 10:00:31;;;;;;;14.05;12.68;;;;;;;32.18;54.23;100914.97;5012503;28;70529;-40
2022/01/06 10:03:05;;;;;;;13.80;12.48;;;;;;;32.17;54.29;100912.47;5015570;28;66194;-40
2022/01/06 10:05:49;;;;;;;13.57;12.13;;;;;;;32.35;54.80;100944.22;5010622;28;70232;-40
2022/01/06 10:08:29;;;;;;;13.63;12.43;;;;;;;32.31;54.68;100941.09;5014960;28;65419;-40
2022/01/06 10:11:11;;;;;;;14.07;12.55;;;;;;;32.35;54.38;100958.59;5018456;28;69889;-39
2022/01/06 10:13:52;;;;;;;19.63;12.80;;;;;;;32.38;54.43;100952.72;5013434;28;66404;-40
2022/01/06 10:16:23;;;;;;;15.32;12.30;;;;;;;32.38;54.81;100957.31;5006748;28;68888;-40
2022/01/06 10:19:06;;;;;;;12.80;11.57;;;;;;;32.39;54.78;100950.81;5022609;28;66706;-41
2022/01/06 10:21:45;;;;;;;16.90;11.43;;;;;;;32.34;54.80;100951.50;5018825;28;69591;-41
2022/01/06 10:24:22;;;;;;;12.95;11.75;;;;;;;32.19;54.80;100934.81;5018178;28;65612;-40
2022/01/06 10:26:55;;;;;;;12.18;10.88;;;;;;;32.36;54.68;100964.88;5017163;28;70278;-42
2022/01/06 10:29:29;;;;;;;12.82;11.65;;;;;;;32.36;54.86;100960.25;5012126;28;65074;-40
2022/01/06 10:32:11;;;;;;;12.45;11.27;;;;;;;32.36;55.09;100970.28;5029440;28;70097;-40
2022/01/06 10:34:49;;;;;;;12.13;10.93;;;;;;;32.31;55.38;100951.97;5013812;28;66001;-42
2022/01/06 10:37:38;;;;;;;18.90;10.57;;;;;;;32.15;55.69;100931.72;5016817;28;70288;-42
2022/01/06 10:40:23;;;;;;;18.27;10.88;;;;;;;32.19;55.99;100932.09;5017855;28;65899;-42
2022/01/06 10:43:05;;;;;;;12.57;10.45;;;;;;;32.38;56.07;100963.56;5032558;28;69926;-41
2022/01/06 10:45:36;;;;;;;12.25;9.63;;;;;;;32.35;56.87;100974.91;5016755;28;66243;-42
2022/01/06 10:48:06;;;;;;;10.57;9.43;;;;;;;32.37;56.87;100980.91;5015816;28;69403;-43
2022/01/06 10:50:59;;;;;;;19.63;9.98;;;;;;;32.38;56.66;100979.88;5008924;28;66099;-42
2022/01/06 10:53:32;;;;;;;22.20;10.30;;;;;;;32.39;57.67;100992.38;5017632;28;70380;-42
2022/01/06 10:56:02;;;;;;;21.50;9.82;;;;;;;32.39;57.97;100992.38;5015024;28;65677;-42
2022/01/06 10:58:33;;;;;;;20.83;9.90;;;;;;;32.40;57.74;100988.63;5018711;28;70936;-43
2022/01/06 11:01:04;;;;;;;18.83;9.77;;;;;;;32.35;58.07;100987.66;5001998;28;65302;-43
2022/01/06 11:03:36;;;;;;;17.38;10.30;;;;;;;32.36;58.61;100986.59;5015533;28;69993;-43
2022/01/06 11:06:06;;;;;;;19.02;9.93;;;;;;;32.34;58.43;100996.81;5018469;28;66516;-42
2022/01/06 11:08:42;;;;;;;20.45;9.90;;;;;;;32.31;58.95;100997.28;5017633;28;69737;-41
2022/01/06 11:11:28;;;;;;;15.75;9.68;;;;;;;32.31;59.34;101000.81;5018253;28;66158;-42
2022/01/06 11:13:59;;;;;;;23.27;10.13;;;;;;;32.26;58.90;100996.09;5033560;28;70314;-42
2022/01/06 11:16:29;;;;;;;34.83;10.90;;;;;;;32.28;59.42;101004.00;5018585;28;65784;-42
2022/01/06 11:19:00;;;;;;;22.73;11.85;;;;;;;32.26;58.97;100997.97;5020308;28;70550;-43
2022/01/06 11:21:47;;;;;;;18.30;10.82;;;;;;;32.21;59.19;101000.56;5020252;28;66205;-42
2022/01/06 11:24:22;;;;;;;18.75;10.32;;;;;;;32.23;59.02;101012.84;5019934;28;70765;-43
2022/01/06 11:27:11;;;;;;;16.55;10.05;;;;;;;32.16;59.70;101008.53;5017865;28;66546;-42
2022/01/06 11:29:43;;;;;;;21.23;10.25;;;;;;;32.20;59.20;101012.44;5037089;28;70015;-42
2022/01/06 11:32:19;;;;;;;18.33;10.18;;;;;;;32.00;58.95;100991.78;5023471;28;65492;-42
2022/01/06 11:35:16;;;;;;;18.67;9.80;;;;;;;32.09;59.53;101027.59;5012646;28;70339;-44
2022/01/06 11:37:49;;;;;;;15.77;9.30;;;;;;;32.14;59.11;101016.06;4995583;28;67258;-43
2022/01/06 11:40:35;;;;;;;22.95;11.20;;;;;;;32.12;59.85;101035.28;4995015;28;71655;-42